Time;durP1;ratioP1;P1;durP2;ratioP2;P2;SDS_P1;SDS_P2;PMS_P1;PMS_P2;Temp;Humidity;BMP_temperature;BMP_pressure;BME280_temperature;BME280_humidity;BME280_pressure;Samples;Min_cycle;Max_cycle;Signal;HPM_P1;HPM_P2
2021/05/05 00:00:01;;;;;;;5.40;3.88;;;;;;;9.92;93.26;98211.06;4975716;28;20194;-73
2021/05/05 00:02:27;;;;;;;4.68;3.63;;;;;;;9.86;93.15;98205.31;4975148;28;20190;-73
2021/05/05 00:04:53;;;;;;;4.57;4.10;;;;;;;9.81;93.06;98197.59;4975471;28;20647;-74
2021/05/05 00:07:19;;;;;;;4.50;4.10;;;;;;;9.80;92.78;98193.22;4975547;28;20256;-73
2021/05/05 00:09:45;;;;;;;4.90;4.10;;;;;;;9.78;92.59;98193.31;4974944;28;20313;-73
2021/05/05 00:12:11;;;;;;;8.25;4.00;;;;;;;9.78;92.71;98192.47;4975385;28;20202;-74
2021/05/05 00:14:37;;;;;;;4.78;3.60;;;;;;;9.78;91.95;98189.78;4975461;28;20213;-73
2021/05/05 00:17:04;;;;;;;4.22;3.90;;;;;;;9.73;92.25;98194.66;4974959;28;20300;-74
2021/05/05 00:19:31;;;;;;;5.78;4.15;;;;;;;9.73;90.80;98191.97;4975121;28;20300;-74
2021/05/05 00:21:57;;;;;;;5.40;3.65;;;;;;;9.70;90.95;98186.81;4975344;28;20281;-73
2021/05/05 00:24:23;;;;;;;5.05;3.63;;;;;;;9.71;90.27;98173.25;4974768;28;20186;-74
2021/05/05 00:26:50;;;;;;;5.32;3.72;;;;;;;9.71;89.52;98172.41;4974638;28;20209;-74
2021/05/05 00:29:16;;;;;;;9.30;4.10;;;;;;;9.69;89.03;98164.47;4973848;28;20203;-73
2021/05/05 00:31:42;;;;;;;6.15;3.90;;;;;;;9.69;89.02;98155.56;4974590;28;20216;-74
2021/05/05 00:34:09;;;;;;;4.95;3.70;;;;;;;9.65;89.41;98165.66;4974820;28;20263;-74
2021/05/05 00:36:35;;;;;;;4.85;3.10;;;;;;;9.69;88.63;98161.78;4974354;28;20209;-73
2021/05/05 00:39:03;;;;;;;7.28;3.75;;;;;;;9.59;88.72;98160.78;4974920;28;20279;-74
2021/05/05 00:41:29;;;;;;;5.25;3.63;;;;;;;9.72;85.85;98166.06;4974954;28;20657;-74
2021/05/05 00:43:55;;;;;;;5.47;3.35;;;;;;;9.76;83.53;98165.69;4974066;28;20192;-73
2021/05/05 00:46:22;;;;;;;8.60;3.70;;;;;;;9.66;81.39;98169.25;4974343;28;20274;-74
2021/05/05 00:48:48;;;;;;;3.97;3.22;;;;;;;9.66;81.38;98175.47;4974484;28;20284;-74
2021/05/05 00:51:15;;;;;;;9.60;3.45;;;;;;;9.68;79.45;98167.25;4974413;28;20277;-74
2021/05/05 00:53:41;;;;;;;5.95;3.08;;;;;;;9.59;80.01;98169.69;4974290;28;20323;-73
2021/05/05 00:56:08;;;;;;;3.95;3.05;;;;;;;9.60;79.68;98174.09;4974756;28;20189;-74
2021/05/05 00:58:35;;;;;;;6.32;2.85;;;;;;;9.56;79.61;98169.06;4974362;28;20649;-73
2021/05/05 01:01:02;;;;;;;9.40;3.47;;;;;;;9.67;79.20;98179.00;4974693;28;20285;-74
2021/05/05 01:03:28;;;;;;;8.02;3.55;;;;;;;9.68;78.54;98176.19;4974548;28;20352;-74
2021/05/05 01:05:54;;;;;;;4.88;2.20;;;;;;;9.64;76.55;98173.88;4954964;29;20245;-74
2021/05/05 01:08:23;;;;;;;3.65;2.35;;;;;;;9.51;75.18;98185.53;4955139;29;20186;-74
2021/05/05 01:10:50;;;;;;;3.70;3.05;;;;;;;9.57;74.96;98185.09;4973620;28;20466;-73
2021/05/05 01:13:16;;;;;;;4.18;2.60;;;;;;;9.45;73.33;98185.16;4973868;28;20217;-73
2021/05/05 01:15:44;;;;;;;6.47;3.03;;;;;;;9.43;72.65;98176.34;4973982;28;20207;-74
2021/05/05 01:18:10;;;;;;;7.13;2.40;;;;;;;9.41;72.71;98171.13;4974094;28;20668;-73
2021/05/05 01:20:37;;;;;;;4.60;2.63;;;;;;;9.58;74.52;98170.66;4973632;28;20280;-73
2021/05/05 01:23:05;;;;;;;5.10;2.90;;;;;;;9.41;76.77;98181.84;4974241;28;20279;-73
2021/05/05 01:25:31;;;;;;;5.55;2.75;;;;;;;9.44;76.84;98186.97;4974020;28;20288;-72
2021/05/05 01:27:58;;;;;;;5.20;2.60;;;;;;;9.40;76.63;98186.34;4974049;28;20232;-73
2021/05/05 01:30:25;;;;;;;6.00;2.90;;;;;;;9.41;76.04;98181.84;4973997;28;20192;-72
2021/05/05 01:32:51;;;;;;;8.65;2.97;;;;;;;9.34;76.35;98180.63;4974347;28;20228;-74
2021/05/05 01:35:19;;;;;;;6.45;3.50;;;;;;;9.25;77.29;98176.78;4973800;28;20200;-74
2021/05/05 01:37:48;;;;;;;2.50;2.20;;;;;;;9.26;76.56;98177.63;4973696;28;20196;-74
2021/05/05 01:40:20;;;;;;;5.63;3.10;;;;;;;9.19;75.72;98180.78;4973707;28;20203;-74
2021/05/05 01:42:46;;;;;;;5.10;2.30;;;;;;;9.17;73.88;98171.97;4954805;28;20190;-73
2021/05/05 01:45:13;;;;;;;5.68;2.30;;;;;;;9.22;73.73;98173.47;4962913;28;20291;-74
2021/05/05 01:47:41;;;;;;;8.77;2.40;;;;;;;9.15;73.11;98163.19;4973039;28;20293;-73
2021/05/05 01:50:08;;;;;;;8.32;2.60;;;;;;;9.14;72.04;98163.31;4973709;28;20259;-72
2021/05/05 01:52:35;;;;;;;5.25;1.98;;;;;;;9.08;71.83;98163.75;4974351;28;20290;-72
2021/05/05 01:55:01;;;;;;;4.63;2.10;;;;;;;9.06;71.20;98163.03;4973866;28;20231;-73
2021/05/05 01:57:38;;;;;;;6.45;2.60;;;;;;;9.05;69.26;98162.16;4973660;28;20216;-73
2021/05/05 02:00:07;;;;;;;2.72;1.83;;;;;;;9.03;68.31;98160.56;4954993;29;20259;-74
2021/05/05 02:02:33;;;;;;;3.25;1.98;;;;;;;8.96;67.44;98158.34;4960167;28;20185;-73
2021/05/05 02:05:00;;;;;;;4.20;2.20;;;;;;;8.99;66.89;98170.66;4973849;28;20240;-74
2021/05/05 02:07:26;;;;;;;6.53;2.20;;;;;;;9.04;66.11;98171.19;4973447;28;20288;-74
2021/05/05 02:09:53;;;;;;;2.83;2.17;;;;;;;8.95;64.98;98175.44;4973704;28;20243;-74
2021/05/05 02:12:20;;;;;;;6.72;2.00;;;;;;;8.90;64.92;98171.34;4973899;28;20224;-72
2021/05/05 02:14:47;;;;;;;6.18;1.92;;;;;;;8.86;64.73;98175.22;4972969;28;20238;-71
2021/05/05 02:17:15;;;;;;;5.20;1.77;;;;;;;8.77;64.84;98174.97;4974179;28;20212;-74
2021/05/05 02:19:41;;;;;;;6.20;2.40;;;;;;;8.69;65.76;98182.69;4973775;28;20275;-73
2021/05/05 02:22:07;;;;;;;8.80;2.63;;;;;;;8.68;65.96;98189.06;4973722;28;20283;-74
2021/05/05 02:24:33;;;;;;;9.73;2.97;;;;;;;8.66;65.71;98190.09;4973803;28;20188;-74
2021/05/05 02:27:00;;;;;;;3.80;2.35;;;;;;;8.62;66.12;98186.81;4973503;28;20263;-72
2021/05/05 02:29:26;;;;;;;3.80;2.13;;;;;;;8.54;66.65;98195.38;4973575;28;20198;-74
2021/05/05 02:31:54;;;;;;;3.00;1.80;;;;;;;8.46;67.17;98186.19;4973119;28;20235;-75
2021/05/05 02:34:21;;;;;;;4.20;2.00;;;;;;;8.41;67.61;98188.34;4973752;28;20620;-74
2021/05/05 02:36:48;;;;;;;8.32;1.90;;;;;;;8.40;67.77;98195.53;4973642;28;20336;-73
2021/05/05 02:39:14;;;;;;;5.43;2.33;;;;;;;8.31;67.60;98186.28;4973293;28;20206;-73
2021/05/05 02:41:40;;;;;;;9.65;2.53;;;;;;;8.34;67.43;98180.72;4973337;28;20227;-74
2021/05/05 02:44:07;;;;;;;6.60;2.35;;;;;;;8.28;67.63;98193.72;4973034;28;20282;-74
2021/05/05 02:46:33;;;;;;;5.80;2.22;;;;;;;8.20;67.82;98201.44;4974685;28;20279;-73
2021/05/05 02:49:00;;;;;;;5.00;2.05;;;;;;;8.17;67.25;98202.50;4976877;28;20278;-74
2021/05/05 02:51:27;;;;;;;5.15;1.90;;;;;;;8.15;67.45;98204.44;4977326;28;20299;-72
2021/05/05 02:53:53;;;;;;;5.13;3.47;;;;;;;8.02;67.65;98199.06;4976876;28;20255;-74
2021/05/05 02:56:19;;;;;;;6.55;1.80;;;;;;;8.01;67.29;98200.03;4977338;28;20745;-72
2021/05/05 02:58:46;;;;;;;5.68;2.20;;;;;;;7.97;67.23;98206.56;4977113;28;20747;-73
2021/05/05 03:01:12;;;;;;;7.20;2.42;;;;;;;7.94;67.02;98212.16;4977252;28;20185;-73
2021/05/05 03:03:38;;;;;;;7.15;2.42;;;;;;;7.86;67.57;98201.09;4977041;28;20215;-74
2021/05/05 03:06:05;;;;;;;6.00;2.22;;;;;;;7.79;67.90;98205.19;4976743;28;20247;-75
2021/05/05 03:08:32;;;;;;;8.48;2.63;;;;;;;7.79;67.90;98197.13;4976892;28;20195;-74
2021/05/05 03:10:59;;;;;;;7.18;2.17;;;;;;;7.75;67.92;98200.97;4976235;28;20200;-73
2021/05/05 03:13:25;;;;;;;8.02;2.10;;;;;;;7.68;68.41;98200.53;4976290;28;20254;-72
2021/05/05 03:15:51;;;;;;;3.45;2.05;;;;;;;7.62;68.76;98203.63;4976572;28;20208;-75
2021/05/05 03:18:18;;;;;;;5.97;1.95;;;;;;;7.64;68.88;98202.59;4976087;28;20298;-73
2021/05/05 03:20:44;;;;;;;8.38;2.20;;;;;;;7.58;69.30;98205.69;4976576;28;20241;-73
2021/05/05 03:23:11;;;;;;;9.05;2.20;;;;;;;7.56;69.43;98210.28;4976264;28;20271;-73
2021/05/05 03:25:37;;;;;;;6.63;2.25;;;;;;;7.53;69.64;98210.50;4976607;28;20203;-73
2021/05/05 03:28:04;;;;;;;7.65;2.70;;;;;;;7.43;70.08;98212.06;4976114;28;20274;-72
2021/05/05 03:30:30;;;;;;;7.80;2.35;;;;;;;7.35;70.28;98211.72;4976343;28;20195;-74
2021/05/05 03:32:56;;;;;;;3.70;2.10;;;;;;;7.40;70.31;98217.66;4976022;28;20230;-72
2021/05/05 03:35:22;;;;;;;10.10;2.20;;;;;;;7.37;70.44;98223.19;4976320;28;20191;-73
2021/05/05 03:37:48;;;;;;;8.10;2.15;;;;;;;7.32;70.21;98223.50;4975858;28;20279;-74
2021/05/05 03:40:15;;;;;;;4.28;2.40;;;;;;;7.31;70.01;98222.66;4976199;28;20235;-73
2021/05/05 03:42:42;;;;;;;5.47;2.10;;;;;;;7.21;70.38;98220.66;4976305;28;20206;-73
2021/05/05 03:45:09;;;;;;;6.68;2.33;;;;;;;7.26;69.83;98223.94;4976518;28;20650;-74
2021/05/05 03:47:36;;;;;;;10.07;2.55;;;;;;;7.23;69.84;98227.63;4975990;28;20195;-75
2021/05/05 03:50:03;;;;;;;5.15;1.88;;;;;;;7.23;69.76;98227.63;4975870;28;20718;-74
2021/05/05 03:52:29;;;;;;;12.27;3.15;;;;;;;7.25;69.80;98235.56;4973693;28;20282;-72
2021/05/05 03:54:55;;;;;;;5.93;2.70;;;;;;;7.12;70.23;98246.22;4976002;28;20235;-75
2021/05/05 03:57:22;;;;;;;4.72;1.77;;;;;;;7.16;70.11;98242.38;4975186;28;20291;-74
2021/05/05 03:59:48;;;;;;;5.63;2.13;;;;;;;7.12;70.00;98246.22;4975580;28;20210;-74
2021/05/05 04:02:15;;;;;;;3.88;2.20;;;;;;;7.06;70.73;98249.31;4975535;28;20204;-74
2021/05/05 04:04:41;;;;;;;7.18;2.90;;;;;;;7.01;70.64;98254.97;4975549;28;20326;-74
2021/05/05 04:07:07;;;;;;;5.18;2.47;;;;;;;6.98;70.80;98248.94;4975982;28;20311;-73
2021/05/05 04:09:35;;;;;;;10.75;2.97;;;;;;;7.00;70.71;98252.38;4975979;28;20300;-73
2021/05/05 04:12:02;;;;;;;5.53;2.83;;;;;;;6.93;70.68;98267.13;4975604;28;20231;-73
2021/05/05 04:14:28;;;;;;;9.93;2.90;;;;;;;6.95;70.57;98257.19;4975558;28;20251;-73
2021/05/05 04:16:55;;;;;;;3.50;2.22;;;;;;;6.92;70.41;98258.25;4975724;28;20231;-71
2021/05/05 04:19:21;;;;;;;7.35;2.22;;;;;;;6.80;70.89;98262.53;4975312;28;20279;-74
2021/05/05 04:21:47;;;;;;;6.57;2.55;;;;;;;6.87;71.08;98276.41;4975427;28;20601;-73
2021/05/05 04:24:14;;;;;;;6.78;2.22;;;;;;;6.82;70.58;98276.69;4975650;28;20194;-73
2021/05/05 04:26:40;;;;;;;4.32;2.55;;;;;;;6.77;70.98;98273.47;4975295;28;20606;-73
2021/05/05 04:29:06;;;;;;;6.75;2.80;;;;;;;6.78;70.93;98279.66;4974815;28;20200;-72
2021/05/05 04:31:33;;;;;;;7.32;2.35;;;;;;;6.78;71.14;98277.84;4975032;28;20230;-73
2021/05/05 04:33:59;;;;;;;4.90;2.30;;;;;;;6.87;70.38;98279.94;4975292;28;20228;-73
2021/05/05 04:36:25;;;;;;;5.13;2.30;;;;;;;6.86;70.32;98298.78;4975130;28;20196;-73
2021/05/05 04:38:52;;;;;;;5.93;2.47;;;;;;;6.82;70.55;98298.09;4974797;28;20250;-73
2021/05/05 04:41:18;;;;;;;7.85;3.10;;;;;;;6.76;70.90;98301.19;4973671;28;20196;-72
2021/05/05 04:43:44;;;;;;;7.10;2.88;;;;;;;6.80;70.65;98315.19;4974607;28;20270;-74
2021/05/05 04:46:10;;;;;;;8.80;2.45;;;;;;;6.68;71.11;98316.84;4974856;28;20623;-75
2021/05/05 04:48:37;;;;;;;6.20;2.80;;;;;;;6.72;71.14;98322.88;4974308;28;20616;-74
2021/05/05 04:51:03;;;;;;;6.18;3.47;;;;;;;6.69;71.14;98315.88;4974668;28;20242;-75
2021/05/05 04:53:29;;;;;;;7.88;2.38;;;;;;;6.77;71.08;98318.94;4973893;28;20243;-72
2021/05/05 04:55:56;;;;;;;8.65;2.38;;;;;;;6.77;71.01;98326.09;4982827;28;20634;-73
2021/05/05 04:58:22;;;;;;;8.35;2.10;;;;;;;6.75;71.25;98328.88;4976519;28;20192;-72
2021/05/05 05:00:48;;;;;;;8.95;2.53;;;;;;;6.80;71.38;98326.75;4981353;28;20223;-71
2021/05/05 05:03:14;;;;;;;7.10;2.30;;;;;;;6.90;70.69;98337.75;4973989;28;20204;-72
2021/05/05 05:05:41;;;;;;;7.47;2.75;;;;;;;6.89;71.00;98341.38;4973534;28;20259;-71
2021/05/05 05:08:07;;;;;;;10.10;3.17;;;;;;;6.84;71.16;98343.50;4973931;28;20333;-71
2021/05/05 05:10:33;;;;;;;6.63;2.80;;;;;;;6.88;70.96;98343.19;4973383;28;20525;-71
2021/05/05 05:13:00;;;;;;;8.13;2.70;;;;;;;6.85;71.31;98346.06;4976744;28;20232;-71
2021/05/05 05:15:27;;;;;;;6.40;2.30;;;;;;;6.90;71.09;98353.81;4974275;28;20188;-74
2021/05/05 05:17:53;;;;;;;6.05;3.10;;;;;;;7.04;70.95;98358.28;4974731;28;20270;-71
2021/05/05 05:20:20;;;;;;;8.27;2.50;;;;;;;7.34;69.76;98351.91;4975145;28;20192;-69
2021/05/05 05:22:47;;;;;;;10.68;4.90;;;;;;;7.57;69.26;98353.09;4968104;28;20251;-71
2021/05/05 05:25:13;;;;;;;5.93;2.20;;;;;;;7.48;69.27;98357.22;4973221;28;20588;-69
2021/05/05 05:27:40;;;;;;;5.22;2.30;;;;;;;7.51;69.17;98357.06;4974722;28;20294;-70
2021/05/05 05:30:07;;;;;;;5.50;2.00;;;;;;;7.60;68.82;98364.47;4974647;28;20194;-71
2021/05/05 05:32:33;;;;;;;9.23;2.80;;;;;;;7.48;69.23;98365.28;4974459;28;20615;-68
2021/05/05 05:34:59;;;;;;;5.05;2.30;;;;;;;7.31;69.91;98367.22;4974387;28;20250;-69
2021/05/05 05:37:25;;;;;;;6.60;2.58;;;;;;;7.29;70.33;98371.81;4974581;28;20615;-72
2021/05/05 05:39:52;;;;;;;7.38;2.00;;;;;;;7.35;70.32;98370.56;4973187;28;20250;-69
2021/05/05 05:42:19;;;;;;;5.65;2.58;;;;;;;7.38;70.22;98372.19;4973614;28;20208;-70
2021/05/05 05:44:45;;;;;;;6.72;2.60;;;;;;;7.39;70.27;98374.75;4974112;28;20525;-70
2021/05/05 05:47:11;;;;;;;6.35;3.75;;;;;;;7.54;69.81;98380.94;4974026;28;20535;-69
2021/05/05 05:49:37;;;;;;;6.45;2.28;;;;;;;7.56;69.70;98389.75;4983093;28;20290;-71
2021/05/05 05:52:03;;;;;;;7.60;3.38;;;;;;;7.77;69.57;98389.28;4973561;28;20204;-71
2021/05/05 05:54:30;;;;;;;11.50;3.03;;;;;;;8.05;68.74;98413.31;4973703;28;20207;-70
2021/05/05 05:56:56;;;;;;;7.18;2.60;;;;;;;8.15;68.18;98394.78;4973525;28;20200;-72
2021/05/05 05:59:23;;;;;;;10.38;2.72;;;;;;;8.24;67.80;98404.03;4973721;28;20623;-71
2021/05/05 06:01:49;;;;;;;12.07;3.10;;;;;;;8.31;67.77;98397.28;4974082;28;20231;-70
2021/05/05 06:04:16;;;;;;;4.13;2.53;;;;;;;8.30;67.88;98409.00;4973975;28;20810;-70
2021/05/05 06:06:42;;;;;;;8.20;3.20;;;;;;;8.46;67.82;98409.69;4973580;28;20196;-71
2021/05/05 06:09:09;;;;;;;10.70;2.90;;;;;;;8.38;67.05;98421.88;4973684;28;20629;-71
2021/05/05 06:11:35;;;;;;;9.73;3.05;;;;;;;8.18;67.97;98420.53;4974002;28;20585;-69
2021/05/05 06:14:02;;;;;;;9.57;2.40;;;;;;;7.93;68.57;98420.31;4973675;28;20211;-70
2021/05/05 06:16:28;;;;;;;11.38;3.45;;;;;;;7.92;69.25;98426.66;4973917;28;20255;-71
2021/05/05 06:18:54;;;;;;;5.82;2.50;;;;;;;8.00;69.03;98428.81;4974024;28;20263;-70
2021/05/05 06:21:21;;;;;;;8.48;3.25;;;;;;;8.15;68.52;98425.13;4974674;28;20252;-70
2021/05/05 06:23:47;;;;;;;8.52;3.15;;;;;;;8.28;67.85;98417.13;4977448;28;20518;-70
2021/05/05 06:26:13;;;;;;;6.82;2.80;;;;;;;8.48;67.24;98431.03;4977692;28;20184;-70
2021/05/05 06:28:39;;;;;;;9.50;2.63;;;;;;;8.38;67.61;98429.91;4977399;28;20224;-70
2021/05/05 06:31:06;;;;;;;10.50;3.80;;;;;;;8.54;67.57;98435.97;4977330;28;20294;-69
2021/05/05 06:33:32;;;;;;;9.25;2.90;;;;;;;8.67;66.59;98434.19;4977223;28;20295;-71
2021/05/05 06:35:59;;;;;;;9.77;2.45;;;;;;;8.60;66.28;98440.94;4976691;28;20247;-70
2021/05/05 06:38:25;;;;;;;6.57;3.13;;;;;;;8.35;67.41;98428.31;4976771;28;20317;-69
2021/05/05 06:40:51;;;;;;;9.23;2.70;;;;;;;8.27;67.64;98422.59;4976131;28;20194;-70
2021/05/05 06:43:17;;;;;;;5.80;2.47;;;;;;;8.36;67.68;98432.69;4977377;28;20192;-70
2021/05/05 06:45:43;;;;;;;9.70;2.95;;;;;;;8.56;66.99;98442.94;4977330;28;20291;-70
2021/05/05 06:48:10;;;;;;;11.10;3.90;;;;;;;8.67;66.56;98446.75;4976327;28;20204;-71
2021/05/05 06:50:37;;;;;;;8.23;2.30;;;;;;;8.52;66.72;98441.47;4976852;28;20220;-70
2021/05/05 06:53:03;;;;;;;5.28;2.72;;;;;;;8.45;67.18;98441.97;4976830;28;20287;-70
2021/05/05 06:55:29;;;;;;;7.18;2.55;;;;;;;8.64;66.98;98458.56;4976246;28;20192;-71
2021/05/05 06:57:55;;;;;;;5.15;2.92;;;;;;;9.12;65.43;98452.56;4977531;28;20275;-70
2021/05/05 07:00:22;;;;;;;7.13;3.05;;;;;;;9.08;64.78;98453.75;4976889;28;20958;-72
2021/05/05 07:02:48;;;;;;;8.70;2.90;;;;;;;9.21;63.92;98440.31;4977466;28;20821;-70
2021/05/05 07:05:15;;;;;;;8.43;3.28;;;;;;;9.17;64.38;98443.19;4976737;28;20256;-71
2021/05/05 07:07:42;;;;;;;7.78;2.80;;;;;;;9.14;64.40;98447.94;4976249;28;20661;-72
2021/05/05 07:10:11;;;;;;;8.82;3.78;;;;;;;9.46;63.52;98444.78;4976053;28;20371;-73
2021/05/05 07:12:38;;;;;;;6.85;2.67;;;;;;;9.33;63.48;98437.59;4976872;28;20200;-71
2021/05/05 07:15:05;;;;;;;9.02;2.95;;;;;;;9.27;63.74;98435.38;4976572;28;20216;-71
2021/05/05 07:17:33;;;;;;;5.88;2.50;;;;;;;8.98;64.57;98443.66;4977112;28;20647;-72
2021/05/05 07:19:59;;;;;;;6.43;3.20;;;;;;;9.07;63.63;98454.72;4976379;28;20659;-71
2021/05/05 07:22:26;;;;;;;6.07;2.65;;;;;;;9.25;63.71;98442.69;4976283;28;20302;-72
2021/05/05 07:24:53;;;;;;;4.40;2.90;;;;;;;9.44;63.04;98452.09;4975359;28;20195;-69
2021/05/05 07:27:19;;;;;;;5.90;2.95;;;;;;;9.35;62.98;98445.56;4976211;28;20312;-72
2021/05/05 07:29:45;;;;;;;5.70;3.15;;;;;;;9.60;62.41;98436.59;4975313;28;20293;-72
2021/05/05 07:32:12;;;;;;;12.20;3.50;;;;;;;10.09;60.90;98437.50;4980232;28;21005;-72
2021/05/05 07:34:40;;;;;;;8.38;3.20;;;;;;;10.08;61.33;98428.56;4981057;28;20211;-73
2021/05/05 07:37:09;;;;;;;5.57;2.95;;;;;;;10.03;61.25;98431.59;4990598;28;20206;-73
2021/05/05 07:42:42;;;;;;;13.98;3.90;;;;;;;9.05;69.22;98435.19;4959377;28;20196;-71
2021/05/05 07:45:23;;;;;;;5.07;2.95;;;;;;;8.73;69.31;98440.97;4976101;28;20298;-72
2021/05/05 07:47:52;;;;;;;5.50;3.05;;;;;;;8.72;70.44;98444.59;4979531;28;20192;-72
2021/05/05 07:50:18;;;;;;;12.50;3.50;;;;;;;8.97;70.42;98438.38;4972005;28;20291;-72
2021/05/05 07:52:44;;;;;;;7.60;3.58;;;;;;;9.08;68.15;98443.00;4975383;28;20268;-71
2021/05/05 07:55:12;;;;;;;8.07;4.50;;;;;;;8.78;69.58;98454.91;4976799;28;20215;-74
2021/05/05 07:57:42;;;;;;;3.88;2.42;;;;;;;8.47;68.50;98462.38;4975814;28;20200;-71
2021/05/05 08:00:10;;;;;;;4.35;2.55;;;;;;;8.09;71.46;98478.28;4975223;28;20231;-71
2021/05/05 08:02:37;;;;;;;5.20;2.60;;;;;;;7.65;74.98;98484.72;4975303;28;20247;-71
2021/05/05 08:05:03;;;;;;;7.72;2.83;;;;;;;7.39;76.43;98479.19;4975051;28;20259;-71
2021/05/05 08:07:30;;;;;;;2.45;2.25;;;;;;;7.22;74.98;98488.28;4976065;28;20272;-71
2021/05/05 08:09:56;;;;;;;4.75;2.63;;;;;;;7.53;75.06;98507.81;4975792;28;20204;-72
2021/05/05 08:12:23;;;;;;;4.32;2.78;;;;;;;7.86;74.19;98503.91;4975174;28;20287;-71
2021/05/05 08:14:51;;;;;;;6.90;2.75;;;;;;;7.90;73.85;98502.78;4975599;28;20208;-73
2021/05/05 08:17:17;;;;;;;3.88;2.40;;;;;;;8.08;73.05;98492.69;4975104;28;20324;-73
2021/05/05 08:19:44;;;;;;;6.35;2.45;;;;;;;8.39;72.47;98496.00;4973980;28;20203;-73
2021/05/05 08:22:11;;;;;;;4.40;2.47;;;;;;;8.74;71.98;98499.03;4975070;28;20222;-70
2021/05/05 08:24:38;;;;;;;4.40;2.60;;;;;;;8.58;70.88;98499.19;4978732;28;20292;-71
2021/05/05 08:27:05;;;;;;;4.93;2.58;;;;;;;9.21;69.57;98508.31;4974846;28;20263;-71
2021/05/05 08:29:33;;;;;;;2.97;1.80;;;;;;;8.88;67.13;98514.19;4974662;28;20523;-71
2021/05/05 08:32:00;;;;;;;3.65;2.28;;;;;;;9.16;66.86;98508.63;4975208;28;20623;-69
2021/05/05 08:34:26;;;;;;;5.50;2.40;;;;;;;9.34;66.60;98516.38;4955525;29;20356;-71
2021/05/05 08:36:52;;;;;;;5.07;2.45;;;;;;;9.43;64.22;98515.72;4963899;28;20275;-70
2021/05/05 08:39:18;;;;;;;5.05;2.15;;;;;;;9.08;65.03;98516.34;4974592;28;20310;-71
2021/05/05 08:41:45;;;;;;;4.05;1.92;;;;;;;9.02;65.17;98519.44;4974604;28;20199;-70
2021/05/05 08:44:12;;;;;;;2.50;1.95;;;;;;;9.15;65.06;98527.53;4973884;28;20205;-71
2021/05/05 08:46:42;;;;;;;5.68;2.78;;;;;;;9.86;61.96;98518.03;4974263;28;20663;-71
2021/05/05 08:49:08;;;;;;;4.05;2.80;;;;;;;9.59;60.66;98518.19;4975093;28;20658;-72
2021/05/05 08:51:36;;;;;;;3.85;2.20;;;;;;;9.57;60.30;98529.03;4974462;28;20196;-70
2021/05/05 08:54:03;;;;;;;4.00;2.45;;;;;;;9.88;59.78;98509.84;4974969;28;20639;-72
2021/05/05 08:56:34;;;;;;;7.82;3.75;;;;;;;9.92;59.25;98530.16;4974177;28;20200;-70
2021/05/05 08:59:01;;;;;;;4.63;2.70;;;;;;;9.88;59.80;98536.72;4974527;28;20199;-72
2021/05/05 09:01:27;;;;;;;2.03;1.90;;;;;;;9.02;62.96;98535.56;4974790;28;20192;-72
2021/05/05 09:03:55;;;;;;;3.90;2.35;;;;;;;8.31;69.63;98547.47;4974094;28;20305;-70
2021/05/05 09:06:46;;;;;;;6.32;3.03;;;;;;;7.56;71.99;98545.09;4974307;28;20188;-69
2021/05/05 09:09:29;;;;;;;7.07;3.22;;;;;;;7.75;73.73;98563.56;4974660;28;20234;-72
2021/05/05 09:11:56;;;;;;;5.57;2.50;;;;;;;8.03;75.85;98554.63;4974608;28;20195;-71
2021/05/05 09:14:22;;;;;;;4.78;2.90;;;;;;;8.66;72.17;98560.38;4974679;28;20658;-72
2021/05/05 09:16:48;;;;;;;4.07;2.70;;;;;;;8.65;71.48;98553.31;4974859;28;20269;-71
2021/05/05 09:19:15;;;;;;;2.50;2.30;;;;;;;9.13;69.23;98550.94;4974826;28;20580;-72
2021/05/05 09:21:43;;;;;;;3.83;2.20;;;;;;;9.10;65.08;98543.09;4974126;28;20345;-72
2021/05/05 09:24:21;;;;;;;2.50;2.13;;;;;;;9.33;64.69;98553.09;4980474;28;20224;-72
2021/05/05 09:26:49;;;;;;;4.10;2.67;;;;;;;9.37;64.22;98554.63;4974114;28;20208;-73
2021/05/05 09:29:16;;;;;;;5.20;2.25;;;;;;;9.49;61.47;98554.72;4974001;28;20212;-73
2021/05/05 09:31:44;;;;;;;4.18;2.45;;;;;;;9.77;60.34;98549.13;4973788;28;20286;-71
2021/05/05 09:34:11;;;;;;;3.45;2.05;;;;;;;10.05;59.61;98571.34;4973900;28;20661;-71
2021/05/05 09:36:40;;;;;;;3.78;2.22;;;;;;;9.88;56.55;98551.03;4973878;28;20246;-72
2021/05/05 09:39:09;;;;;;;3.45;2.53;;;;;;;9.89;57.44;98552.75;4973866;28;20204;-72
2021/05/05 09:41:36;;;;;;;6.53;2.70;;;;;;;10.45;55.94;98557.69;4973353;28;20215;-73
2021/05/05 09:44:05;;;;;;;5.25;2.70;;;;;;;10.33;54.83;98562.13;4974244;28;20198;-71
2021/05/05 09:46:44;;;;;;;3.00;2.05;;;;;;;10.17;54.89;98559.66;4973236;28;20207;-70
2021/05/05 09:49:22;;;;;;;2.55;1.83;;;;;;;10.08;53.79;98563.03;4973392;28;20236;-71
2021/05/05 09:51:52;;;;;;;6.90;4.50;;;;;;;10.13;52.33;98571.66;4973278;28;20289;-71
2021/05/05 09:54:26;;;;;;;2.80;2.40;;;;;;;10.66;50.44;98560.59;4972676;28;20216;-71
2021/05/05 09:56:53;;;;;;;5.13;2.05;;;;;;;11.18;49.50;98555.78;4977810;28;20541;-71
2021/05/05 09:59:20;;;;;;;2.05;1.85;;;;;;;10.95;48.60;98549.47;4978070;28;20206;-72
2021/05/05 10:02:00;;;;;;;4.82;2.50;;;;;;;11.79;46.66;98559.06;4977382;28;20203;-71
2021/05/05 10:04:26;;;;;;;2.40;2.20;;;;;;;11.92;45.87;98568.88;4977292;28;20597;-70
2021/05/05 10:07:00;;;;;;;3.88;2.58;;;;;;;12.14;46.60;98573.41;4977673;28;20221;-73
2021/05/05 10:09:26;;;;;;;2.35;1.95;;;;;;;11.56;46.30;98570.81;4978053;28;20219;-72
2021/05/05 10:11:53;;;;;;;3.47;2.00;;;;;;;10.73;48.19;98587.94;4977562;28;20624;-71
2021/05/05 10:14:20;;;;;;;3.85;2.40;;;;;;;10.62;48.55;98597.66;4977439;28;20213;-73
2021/05/05 10:16:49;;;;;;;2.78;2.20;;;;;;;10.35;50.03;98623.91;4977434;28;20290;-71
2021/05/05 10:19:18;;;;;;;3.60;2.35;;;;;;;8.84;64.36;98674.59;4977336;28;20190;-71
2021/05/05 10:21:50;;;;;;;6.85;1.90;;;;;;;5.75;85.57;98724.84;4978070;28;20192;-70
2021/05/05 10:24:19;;;;;;;3.83;2.35;;;;;;;5.49;97.98;98691.47;4977101;28;20188;-70
2021/05/05 10:26:47;;;;;;;3.72;2.20;;;;;;;5.69;98.43;98686.91;4977564;28;20188;-69
2021/05/05 10:29:13;;;;;;;2.90;2.70;;;;;;;5.69;96.22;98695.78;4986058;28;20229;-70
2021/05/05 10:31:41;;;;;;;4.15;2.55;;;;;;;5.82;94.05;98682.66;4976577;28;20208;-69
2021/05/05 10:34:15;;;;;;;4.15;2.15;;;;;;;6.08;91.37;98697.28;4977199;28;20323;-72
2021/05/05 10:36:46;;;;;;;3.10;2.20;;;;;;;6.07;91.74;98689.38;4976862;28;20196;-68
2021/05/05 10:42:11;;;;;;;3.90;2.38;;;;;;;6.54;87.71;98683.22;5110945;27;20522;-71
2021/05/05 10:44:39;;;;;;;3.30;2.60;;;;;;;6.72;87.86;98686.69;5109781;28;20299;-71
2021/05/05 10:47:18;;;;;;;3.00;2.67;;;;;;;7.05;87.42;98678.50;5110377;28;20195;-71
2021/05/05 10:50:14;;;;;;;2.45;2.22;;;;;;;7.24;85.11;98679.16;5109478;28;20639;-71
2021/05/05 10:53:06;;;;;;;3.28;2.60;;;;;;;7.50;87.37;98677.59;5110003;28;20195;-70
2021/05/05 10:55:37;;;;;;;3.30;2.50;;;;;;;7.67;85.13;98668.53;5110210;28;20180;-72
2021/05/05 10:58:06;;;;;;;4.10;3.15;;;;;;;8.13;83.15;98675.53;5109744;28;20538;-72
2021/05/05 11:01:04;;;;;;;3.70;2.78;;;;;;;8.36;80.16;98671.41;5109559;28;20306;-74
2021/05/05 11:04:01;;;;;;;5.18;3.22;;;;;;;8.69;76.84;98667.56;5108562;28;20274;-73
2021/05/05 11:06:47;;;;;;;4.15;3.85;;;;;;;9.13;78.74;98683.38;5109328;28;20287;-72
2021/05/05 11:09:43;;;;;;;3.65;3.35;;;;;;;9.55;74.17;98669.84;5109569;28;20653;-73
2021/05/05 11:12:48;;;;;;;21.55;10.70;;;;;;;10.57;73.19;98675.19;5108884;28;20659;-72
2021/05/05 11:15:17;;;;;;;3.92;3.00;;;;;;;10.69;67.02;98677.97;5109431;28;20189;-72
2021/05/05 11:17:43;;;;;;;5.50;3.47;;;;;;;10.26;68.60;98670.28;5109800;28;20293;-72
2021/05/05 11:20:11;;;;;;;6.35;2.58;;;;;;;9.78;68.34;98666.41;5108864;28;20226;-75
2021/05/05 11:22:45;;;;;;;3.58;2.70;;;;;;;9.95;69.39;98678.69;5109384;28;20221;-74
2021/05/05 11:25:24;;;;;;;4.28;3.00;;;;;;;9.65;68.05;98702.31;5108888;28;20223;-74
2021/05/05 11:27:53;;;;;;;2.75;2.42;;;;;;;9.14;67.23;98703.06;5108901;28;20236;-74
2021/05/05 11:30:49;;;;;;;3.30;2.70;;;;;;;9.29;71.30;98720.81;5107878;28;20212;-74
2021/05/05 11:33:15;;;;;;;3.45;2.75;;;;;;;9.16;71.28;98715.44;5109207;28;20195;-72
2021/05/05 11:35:42;;;;;;;3.50;3.20;;;;;;;9.44;68.37;98700.13;5108385;28;20287;-73
2021/05/05 11:38:18;;;;;;;5.35;2.85;;;;;;;9.31;67.19;98705.47;5108557;28;20704;-75
2021/05/05 11:40:57;;;;;;;2.65;2.45;;;;;;;9.54;68.69;98706.63;5108950;28;20235;-72
2021/05/05 11:43:26;;;;;;;3.15;1.90;;;;;;;9.44;62.92;98721.63;5109042;28;20274;-74
2021/05/05 11:45:55;;;;;;;2.22;2.03;;;;;;;9.64;60.72;98704.16;5108781;28;20665;-74
2021/05/05 11:48:26;;;;;;;2.75;2.10;;;;;;;10.27;61.29;98707.84;5108405;28;20202;-73
2021/05/05 11:50:53;;;;;;;3.45;1.60;;;;;;;10.69;57.96;98704.88;5109041;28;20215;-73